createdAt,value
2023-04-17T00:02:20.123Z,17.10
2023-04-17T00:04:48.647Z,17.70
2023-04-17T00:07:16.670Z,14.10
2023-04-17T00:09:44.282Z,16.30
2023-04-17T00:12:11.920Z,13.90
2023-04-17T00:14:39.606Z,13.70
2023-04-17T00:17:07.724Z,13.60
2023-04-17T00:19:35.467Z,16.00
2023-04-17T00:22:03.140Z,15.10
2023-04-17T00:24:31.171Z,15.90
2023-04-17T00:26:58.815Z,18.90
2023-04-17T00:29:26.433Z,16.10
2023-04-17T00:31:54.106Z,17.70
2023-04-17T00:34:21.791Z,14.30
2023-04-17T00:36:49.851Z,14.10
2023-04-17T00:39:17.660Z,14.40
2023-04-17T00:41:45.473Z,14.20
2023-04-17T00:44:14.042Z,16.20
2023-04-17T00:46:42.000Z,14.00
2023-04-17T00:49:10.998Z,15.50
2023-04-17T00:51:38.800Z,14.10
2023-04-17T00:54:07.401Z,15.10
2023-04-17T00:56:35.506Z,14.80
2023-04-17T00:59:06.097Z,17.70
2023-04-17T01:01:33.872Z,17.00
2023-04-17T01:04:07.520Z,15.50
2023-04-17T01:06:36.544Z,11.60
2023-04-17T01:09:04.281Z,15.90
2023-04-17T01:11:32.033Z,16.40
2023-04-17T01:14:00.291Z,14.80
2023-04-17T01:16:30.692Z,12.80
2023-04-17T01:18:59.649Z,13.60
2023-04-17T01:21:27.655Z,14.80
2023-04-17T01:24:02.580Z,14.50
2023-04-17T01:26:32.721Z,12.50
2023-04-17T01:29:00.849Z,14.20
2023-04-17T01:33:57.910Z,11.70
2023-04-17T01:36:25.612Z,13.60
2023-04-17T01:38:53.232Z,14.20
2023-04-17T01:41:20.915Z,13.20
2023-04-17T01:43:48.973Z,13.30
2023-04-17T01:46:16.657Z,13.20
2023-04-17T01:48:44.623Z,14.80
2023-04-17T01:51:12.312Z,14.30
2023-04-17T01:53:40.093Z,14.30
2023-04-17T01:56:07.932Z,13.30
2023-04-17T01:58:36.015Z,12.40
2023-04-17T02:01:04.204Z,13.50
2023-04-17T02:03:32.172Z,13.30
2023-04-17T02:06:00.124Z,14.70
2023-04-17T02:08:27.840Z,12.30
2023-04-17T02:10:56.033Z,12.50
2023-04-17T02:13:24.130Z,12.50
2023-04-17T02:15:52.256Z,12.90
2023-04-17T02:18:20.766Z,13.50
2023-04-17T02:20:48.915Z,12.90
2023-04-17T02:23:16.627Z,10.30
2023-04-17T02:25:44.249Z,12.50
2023-04-17T02:28:11.934Z,16.60
2023-04-17T02:30:39.723Z,14.40
2023-04-17T02:33:07.553Z,13.70
2023-04-17T02:35:35.459Z,15.60
2023-04-17T02:38:03.280Z,12.60
2023-04-17T02:40:33.140Z,13.50
2023-04-17T02:43:02.484Z,12.80
2023-04-17T02:45:30.783Z,18.70
2023-04-17T02:47:58.633Z,15.00
2023-04-17T02:50:26.603Z,12.40
2023-04-17T02:53:05.176Z,13.40
2023-04-17T02:55:32.985Z,14.60
2023-04-17T02:58:00.932Z,15.00
2023-04-17T03:00:29.532Z,13.90
2023-04-17T03:02:57.500Z,16.80
2023-04-17T03:05:25.880Z,13.70
2023-04-17T03:07:54.681Z,15.20
2023-04-17T03:10:22.585Z,13.10
2023-04-17T03:12:50.379Z,13.20
2023-04-17T03:15:18.067Z,13.10
2023-04-17T03:17:46.108Z,14.70
2023-04-17T03:44:19.454Z,12.60
2023-04-17T03:46:47.195Z,11.40
2023-04-17T03:49:15.452Z,10.50
2023-04-17T03:51:43.856Z,11.60
2023-04-17T03:54:16.168Z,10.80
2023-04-17T03:56:44.582Z,11.70
2023-04-17T03:59:12.633Z,11.80
2023-04-17T04:01:45.375Z,11.60
2023-04-17T04:04:18.644Z,12.40
2023-04-17T04:33:36.968Z,17.80
2023-04-17T04:36:03.704Z,14.50
2023-04-17T04:38:31.881Z,15.60
2023-04-17T04:41:05.260Z,13.40
2023-04-17T04:43:32.894Z,14.00
2023-04-17T04:46:00.051Z,14.40
2023-04-17T04:48:28.282Z,15.50
2023-04-17T04:50:57.470Z,14.50
2023-04-17T04:53:24.295Z,16.90
2023-04-17T04:55:56.740Z,13.90
2023-04-17T04:58:23.345Z,16.50
2023-04-17T05:00:51.590Z,12.20
2023-04-17T05:03:25.743Z,12.50
2023-04-17T05:05:52.704Z,13.70
2023-04-17T05:08:19.623Z,13.20
2023-04-17T05:10:52.756Z,7.60
2023-04-17T05:13:19.222Z,11.90
2023-04-17T05:15:45.520Z,15.90
2023-04-17T05:18:12.116Z,12.90
2023-04-17T05:20:38.627Z,11.60
2023-04-17T05:23:05.493Z,11.90
2023-04-17T05:25:31.818Z,16.10
2023-04-17T05:27:58.288Z,13.40
2023-04-17T05:30:24.617Z,9.70
2023-04-17T05:32:59.054Z,12.40
2023-04-17T05:35:41.159Z,13.60
2023-04-17T05:38:09.043Z,13.80
2023-04-17T05:40:35.753Z,12.30
2023-04-17T05:43:10.440Z,10.80
2023-04-17T05:45:38.416Z,12.60
2023-04-17T05:48:07.897Z,11.70
2023-04-17T05:50:36.708Z,11.30
2023-04-17T05:53:03.872Z,11.30
2023-04-17T05:55:33.745Z,14.40
2023-04-17T05:58:10.530Z,14.10
2023-04-17T06:00:47.919Z,12.60
2023-04-17T06:03:18.198Z,14.00
2023-04-17T06:05:46.298Z,15.40
2023-04-17T06:08:12.620Z,14.80
2023-04-17T06:10:38.998Z,13.80
2023-04-17T06:13:05.280Z,13.10
2023-04-17T06:15:31.558Z,11.80
2023-04-17T06:17:57.918Z,13.10
2023-04-17T06:20:24.214Z,14.40
2023-04-17T06:22:50.547Z,14.00
2023-04-17T06:25:17.592Z,11.60
2023-04-17T06:27:45.135Z,16.40
2023-04-17T06:30:12.429Z,12.20
2023-04-17T06:32:49.973Z,14.30
2023-04-17T06:35:18.477Z,13.90
2023-04-17T06:37:48.484Z,13.20
2023-04-17T06:40:14.788Z,16.70
2023-04-17T06:42:41.049Z,15.10
2023-04-17T06:45:11.646Z,13.70
2023-04-17T06:47:38.113Z,13.30
2023-04-17T06:50:05.129Z,15.60
2023-04-17T06:52:31.405Z,20.10
2023-04-17T06:54:57.879Z,16.20
2023-04-17T06:57:24.234Z,14.90
2023-04-17T06:59:50.790Z,14.80
2023-04-17T07:02:17.316Z,16.40
2023-04-17T07:04:43.941Z,18.60
2023-04-17T07:07:10.430Z,12.80
2023-04-17T07:09:36.687Z,17.70
2023-04-17T07:12:03.169Z,14.00
2023-04-17T07:14:30.020Z,15.90
2023-04-17T07:16:56.282Z,15.80
2023-04-17T07:19:22.675Z,18.90
2023-04-17T07:21:48.877Z,17.00
2023-04-17T07:24:15.160Z,13.60
2023-04-17T07:26:42.672Z,18.50
2023-04-17T07:29:08.928Z,20.10
2023-04-17T07:31:35.375Z,18.30
2023-04-17T07:34:01.713Z,15.30
2023-04-17T07:36:29.191Z,16.50
2023-04-17T07:38:55.404Z,17.00
2023-04-17T07:41:21.683Z,15.00
2023-04-17T07:43:48.533Z,21.20
2023-04-17T07:46:14.813Z,16.40
2023-04-17T07:48:41.153Z,16.10
2023-04-17T07:51:07.527Z,14.50
2023-04-17T07:53:35.550Z,11.10
2023-04-17T07:56:01.916Z,14.50
2023-04-17T07:58:28.384Z,14.10
2023-04-17T08:00:54.756Z,10.00
2023-04-17T08:03:21.796Z,12.90
2023-04-17T08:05:48.648Z,13.30
2023-04-17T08:08:15.468Z,12.60
2023-04-17T08:10:41.687Z,13.70
2023-04-17T08:13:07.922Z,10.50
2023-04-17T08:15:34.421Z,13.10
2023-04-17T08:18:00.817Z,12.00
2023-04-17T08:20:27.403Z,13.20
2023-04-17T08:22:53.674Z,11.40
2023-04-17T08:25:20.416Z,12.20
2023-04-17T08:27:47.000Z,13.40
2023-04-17T08:30:16.225Z,13.20
2023-04-17T08:32:46.646Z,12.20
2023-04-17T08:35:14.297Z,12.40
2023-04-17T08:37:42.029Z,14.30
2023-04-17T08:40:09.156Z,14.60
2023-04-17T08:42:36.965Z,11.60
2023-04-17T08:45:08.896Z,16.30
2023-04-17T08:47:39.182Z,10.10
2023-04-17T08:50:15.234Z,15.20
2023-04-17T08:52:43.162Z,15.20
2023-04-17T08:55:19.107Z,13.40
2023-04-17T08:58:03.189Z,12.90
2023-04-17T09:00:33.825Z,12.00
2023-04-17T09:03:03.324Z,12.30
2023-04-17T09:05:35.954Z,12.00
2023-04-17T09:08:07.271Z,11.80
2023-04-17T09:10:42.617Z,11.60
2023-04-17T09:13:11.508Z,12.10
2023-04-17T09:15:37.825Z,10.80
2023-04-17T09:18:04.337Z,12.20
2023-04-17T09:20:31.256Z,10.80
2023-04-17T09:23:00.272Z,13.70
2023-04-17T09:25:27.600Z,14.20
2023-04-17T09:28:00.784Z,12.40
2023-04-17T09:30:27.080Z,10.00
2023-04-17T09:33:04.595Z,10.90
2023-04-17T09:35:32.761Z,9.20
2023-04-17T09:37:59.387Z,10.60
2023-04-17T09:40:27.997Z,13.10
2023-04-17T09:42:58.456Z,12.30
2023-04-17T09:45:27.513Z,11.60
2023-04-17T09:47:56.526Z,10.10
2023-04-17T09:50:26.342Z,11.50
2023-04-17T09:52:55.225Z,10.70
2023-04-17T09:55:23.407Z,12.20
2023-04-17T09:57:55.375Z,10.70
2023-04-17T10:00:24.886Z,12.40
2023-04-17T10:02:53.471Z,11.60
2023-04-17T10:05:22.084Z,9.70
2023-04-17T10:07:48.738Z,11.70
2023-04-17T10:10:32.638Z,13.90
2023-04-17T10:13:01.730Z,11.10
2023-04-17T10:15:29.841Z,12.10
2023-04-17T10:18:19.128Z,11.90
2023-04-17T10:20:47.978Z,12.50
2023-04-17T10:23:32.496Z,12.50
2023-04-17T10:26:25.692Z,12.40
2023-04-17T10:28:53.387Z,11.90
2023-04-17T10:31:22.507Z,11.00
2023-04-17T10:33:53.509Z,10.60
2023-04-17T10:36:37.864Z,11.30
2023-04-17T10:39:15.627Z,11.40
2023-04-17T10:42:01.973Z,12.10
2023-04-17T10:44:35.241Z,9.70
2023-04-17T10:47:09.406Z,13.90
2023-04-17T10:49:57.597Z,9.90
2023-04-17T10:52:39.307Z,8.70
2023-04-17T10:55:07.161Z,14.20
2023-04-17T10:57:51.925Z,8.80
2023-04-17T11:00:20.984Z,10.70
2023-04-17T11:02:49.576Z,14.10
2023-04-17T11:05:20.556Z,9.80
2023-04-17T11:07:51.031Z,11.80
2023-04-17T11:10:19.126Z,10.00
2023-04-17T11:12:52.535Z,8.70
2023-04-17T11:15:30.000Z,10.70
2023-04-17T11:17:57.964Z,9.90
2023-04-17T11:20:30.159Z,8.80
2023-04-17T11:23:01.018Z,7.80
2023-04-17T11:25:32.878Z,8.70
2023-04-17T11:28:05.049Z,8.70
2023-04-17T11:30:36.474Z,8.60
2023-04-17T11:33:05.435Z,7.80
2023-04-17T11:35:34.116Z,8.40
2023-04-17T11:38:21.684Z,7.70
2023-04-17T11:40:54.082Z,9.40
2023-04-17T11:43:22.291Z,9.50
2023-04-17T11:45:58.842Z,10.00
2023-04-17T11:48:29.449Z,7.70
2023-04-17T11:50:58.505Z,8.40
2023-04-17T11:53:25.009Z,8.50
2023-04-17T11:56:13.090Z,6.90
2023-04-17T11:58:52.654Z,8.60
2023-04-17T12:01:23.840Z,9.50
2023-04-17T12:03:51.239Z,8.80
2023-04-17T12:06:17.790Z,10.50
2023-04-17T12:08:52.845Z,7.70
2023-04-17T12:11:26.648Z,7.00
2023-04-17T12:13:53.837Z,8.00
2023-04-17T12:16:21.736Z,7.70
2023-04-17T12:18:48.168Z,6.90
2023-04-17T12:21:14.736Z,7.70
2023-04-17T12:23:41.773Z,7.10
2023-04-17T12:26:08.886Z,12.00
2023-04-17T12:28:35.813Z,7.90
2023-04-17T12:31:03.833Z,6.80
2023-04-17T12:33:31.118Z,6.30
2023-04-17T12:35:58.140Z,6.80
2023-04-17T12:38:24.570Z,8.00
2023-04-17T12:40:50.822Z,6.20
2023-04-17T12:43:17.127Z,7.80
2023-04-17T12:45:46.527Z,7.70
2023-04-17T12:48:14.109Z,7.50
2023-04-17T12:50:44.951Z,5.70
2023-04-17T12:53:14.181Z,8.20
2023-04-17T12:55:42.797Z,6.70
2023-04-17T12:58:10.900Z,6.10
2023-04-17T13:00:39.075Z,5.40
2023-04-17T13:03:06.233Z,5.20
2023-04-17T13:05:34.190Z,6.20
2023-04-17T13:08:00.960Z,5.40
2023-04-17T13:10:27.349Z,6.60
2023-04-17T13:12:54.095Z,5.60
2023-04-17T13:15:21.108Z,5.80
2023-04-17T13:17:47.558Z,7.80
2023-04-17T13:20:13.906Z,6.10
2023-04-17T13:22:40.529Z,5.30
2023-04-17T13:25:07.492Z,7.10
2023-04-17T13:27:34.039Z,7.90
2023-04-17T13:30:00.306Z,6.20
2023-04-17T13:32:26.669Z,6.10
2023-04-17T13:34:53.204Z,6.90
2023-04-17T13:37:19.775Z,5.30
2023-04-17T13:39:46.576Z,4.20
2023-04-17T13:42:15.648Z,4.40
2023-04-17T13:44:43.490Z,5.50
2023-04-17T13:47:12.465Z,4.40
2023-04-17T13:49:38.738Z,4.20
2023-04-17T13:52:06.056Z,6.50
2023-04-17T13:54:32.424Z,4.00
2023-04-17T13:57:00.979Z,12.00
2023-04-17T13:59:27.445Z,6.30
2023-04-17T14:01:53.875Z,5.20
2023-04-17T14:04:21.033Z,4.60
2023-04-17T14:06:50.250Z,4.10
2023-04-17T14:09:17.122Z,5.70
2023-04-17T14:11:43.441Z,5.30
2023-04-17T14:14:12.064Z,4.60
2023-04-17T14:16:40.236Z,5.00
2023-04-17T14:21:39.482Z,5.30
2023-04-17T14:24:06.055Z,3.70
2023-04-17T14:26:32.471Z,7.60
2023-04-17T14:28:58.965Z,7.10
2023-04-17T14:31:25.289Z,4.00
2023-04-17T14:33:51.551Z,4.90
2023-04-17T14:36:17.980Z,5.20
2023-04-17T14:38:48.468Z,6.00
2023-04-17T14:41:16.041Z,5.50
2023-04-17T14:43:42.444Z,5.20
2023-04-17T14:46:08.967Z,4.60
2023-04-17T14:48:44.300Z,5.40
2023-04-17T14:51:22.356Z,5.40
2023-04-17T14:53:49.627Z,3.70
2023-04-17T14:56:16.462Z,5.90
2023-04-17T14:58:42.930Z,4.90
2023-04-17T15:01:09.883Z,7.30
2023-04-17T15:03:36.580Z,6.10
2023-04-17T15:06:03.494Z,6.90
2023-04-17T15:08:30.558Z,5.30
2023-04-17T15:10:58.017Z,5.20
2023-04-17T15:13:24.348Z,5.60
2023-04-17T15:15:52.149Z,6.30
2023-04-17T15:18:18.383Z,5.50
2023-04-17T15:20:45.503Z,5.40
2023-04-17T15:23:11.746Z,5.50
2023-04-17T15:25:38.278Z,6.00
2023-04-17T15:28:04.544Z,7.40
2023-04-17T15:30:30.766Z,4.80
2023-04-17T15:32:57.282Z,6.20
2023-04-17T15:35:23.632Z,5.50
2023-04-17T15:37:49.968Z,4.60
2023-04-17T15:40:16.242Z,6.00
2023-04-17T15:42:43.328Z,5.40
2023-04-17T15:45:10.232Z,4.40
2023-04-17T15:47:36.561Z,6.90
2023-04-17T15:50:03.214Z,5.30
2023-04-17T15:52:29.438Z,7.70
2023-04-17T15:54:55.746Z,6.40
2023-04-17T15:57:22.710Z,6.40
2023-04-17T15:59:49.097Z,6.40
2023-04-17T16:02:16.208Z,4.90
2023-04-17T16:04:43.064Z,6.40
2023-04-17T16:07:11.237Z,5.60
2023-04-17T16:09:39.148Z,6.40
2023-04-17T16:12:08.011Z,6.30
2023-04-17T16:14:35.535Z,4.80
2023-04-17T16:17:02.902Z,3.80
2023-04-17T16:19:30.213Z,5.00
2023-04-17T16:21:57.097Z,6.60
2023-04-17T16:24:24.260Z,5.80
2023-04-17T16:26:58.189Z,6.10
2023-04-17T16:29:25.460Z,5.90
2023-04-17T16:31:53.476Z,6.30
2023-04-17T16:34:20.220Z,5.30
2023-04-17T16:36:48.965Z,10.80
2023-04-17T16:39:15.641Z,5.40
2023-04-17T16:41:42.630Z,5.40
2023-04-17T16:44:09.252Z,6.50
2023-04-17T16:46:55.174Z,5.70
2023-04-17T16:49:22.082Z,5.60
2023-04-17T16:51:48.392Z,7.40
2023-04-17T16:54:15.000Z,9.50
2023-04-17T16:56:42.024Z,6.00
2023-04-17T16:59:08.343Z,5.10
2023-04-17T17:01:35.151Z,5.60
2023-04-17T17:04:01.529Z,5.20
2023-04-17T17:06:28.488Z,5.30
2023-04-17T17:08:55.481Z,5.90
2023-04-17T17:11:22.188Z,6.20
2023-04-17T17:13:49.396Z,4.80
2023-04-17T17:16:17.590Z,5.40
2023-04-17T17:18:45.051Z,6.60
2023-04-17T17:21:12.754Z,6.20
2023-04-17T17:23:42.124Z,4.70
2023-04-17T17:26:08.692Z,5.00
2023-04-17T17:28:35.202Z,5.60
2023-04-17T17:31:03.462Z,5.20
2023-04-17T17:33:32.016Z,5.10
2023-04-17T17:35:59.253Z,7.00
2023-04-17T17:38:31.667Z,5.70
2023-04-17T17:40:58.054Z,5.00
2023-04-17T17:43:24.506Z,5.50
2023-04-17T17:45:51.687Z,5.70
2023-04-17T17:48:19.618Z,4.30
2023-04-17T17:50:46.812Z,5.40
2023-04-17T17:53:13.483Z,4.90
2023-04-17T17:55:39.974Z,4.00
2023-04-17T17:58:08.100Z,3.70
2023-04-17T18:00:35.037Z,4.20
2023-04-17T18:03:01.483Z,4.70
2023-04-17T18:05:27.933Z,4.90
2023-04-17T18:07:54.698Z,5.30
2023-04-17T18:10:21.546Z,4.70
2023-04-17T18:12:48.513Z,3.50
2023-04-17T18:15:14.806Z,3.90
2023-04-17T18:17:41.156Z,3.80
2023-04-17T18:20:08.364Z,4.50
2023-04-17T18:22:37.309Z,3.60
2023-04-17T18:25:05.729Z,4.60
2023-04-17T18:27:35.045Z,4.00
2023-04-17T18:30:03.336Z,3.40
2023-04-17T18:32:31.037Z,5.00
2023-04-17T18:34:57.784Z,4.60
2023-04-17T18:37:24.579Z,4.10
2023-04-17T18:39:51.644Z,6.40
2023-04-17T18:42:18.676Z,5.30
2023-04-17T18:44:45.286Z,5.00
2023-04-17T18:47:12.011Z,5.60
2023-04-17T18:49:38.599Z,5.00
2023-04-17T18:52:05.066Z,5.00
2023-04-17T18:54:31.969Z,5.20
2023-04-17T18:56:58.739Z,4.50
2023-04-17T18:59:27.269Z,5.30
2023-04-17T19:01:53.962Z,4.30
2023-04-17T19:04:21.064Z,5.50
2023-04-17T19:06:47.554Z,3.60
2023-04-17T19:09:14.238Z,5.90
2023-04-17T19:11:40.589Z,5.10
2023-04-17T19:14:07.160Z,3.90
2023-04-17T19:16:33.774Z,6.50
2023-04-17T19:19:00.382Z,5.60
2023-04-17T19:21:27.665Z,5.50
2023-04-17T19:23:54.834Z,5.60
2023-04-17T19:26:22.258Z,4.40
2023-04-17T19:28:48.822Z,5.70
2023-04-17T19:31:15.204Z,5.50
2023-04-17T19:33:41.917Z,3.90
2023-04-17T19:36:08.549Z,4.50
2023-04-17T19:38:34.940Z,6.20
2023-04-17T19:41:18.897Z,5.60
2023-04-17T19:43:46.377Z,6.40
2023-04-17T19:46:13.533Z,5.80
2023-04-17T19:48:42.799Z,6.20
2023-04-17T19:51:10.155Z,7.70
2023-04-17T19:53:40.421Z,5.30
2023-04-17T19:56:08.820Z,5.80
2023-04-17T19:58:36.539Z,5.00
2023-04-17T20:01:03.331Z,5.50
2023-04-17T20:03:31.422Z,6.70
2023-04-17T20:05:58.549Z,7.00
2023-04-17T20:08:25.313Z,4.20
2023-04-17T20:10:52.679Z,6.80
2023-04-17T20:13:18.975Z,5.50
2023-04-17T20:15:45.333Z,5.90
2023-04-17T20:18:11.914Z,6.90
2023-04-17T20:20:38.544Z,5.80
2023-04-17T20:23:05.491Z,7.20
2023-04-17T20:25:32.020Z,6.80
2023-04-17T20:27:58.405Z,6.50
2023-04-17T20:30:24.831Z,6.10
2023-04-17T20:32:51.234Z,5.00
2023-04-17T20:35:20.030Z,5.80
2023-04-17T20:37:46.391Z,7.30
2023-04-17T20:40:13.558Z,5.70
2023-04-17T20:42:41.408Z,5.80
2023-04-17T20:45:09.343Z,6.50
2023-04-17T20:47:37.718Z,6.50
2023-04-17T20:50:07.825Z,4.50
2023-04-17T20:52:34.949Z,7.40
2023-04-17T20:55:01.217Z,6.60
2023-04-17T20:57:28.943Z,6.10
2023-04-17T20:59:55.514Z,7.40
2023-04-17T21:02:22.037Z,6.50
2023-04-17T21:04:48.881Z,8.80
2023-04-17T21:07:15.620Z,7.10
2023-04-17T21:09:42.162Z,7.00
2023-04-17T21:12:08.554Z,6.40
2023-04-17T21:14:35.897Z,9.20
2023-04-17T21:17:02.210Z,7.80
2023-04-17T21:19:30.078Z,11.40
2023-04-17T21:21:57.735Z,8.40
2023-04-17T21:24:24.580Z,8.10
2023-04-17T21:26:50.948Z,9.10
2023-04-17T21:29:17.167Z,11.00
2023-04-17T21:31:43.456Z,8.20
2023-04-17T21:34:09.975Z,7.70
2023-04-17T21:36:36.425Z,6.60
2023-04-17T21:39:02.754Z,6.30
2023-04-17T21:41:31.190Z,7.00
2023-04-17T21:44:02.004Z,10.10
2023-04-17T21:46:28.646Z,9.80
2023-04-17T21:48:56.464Z,8.40
2023-04-17T21:51:23.008Z,7.70
2023-04-17T21:53:49.683Z,8.00
2023-04-17T21:56:15.946Z,7.60
2023-04-17T21:58:42.236Z,10.90
2023-04-17T22:01:08.573Z,12.60
2023-04-17T22:03:35.211Z,7.70
2023-04-17T22:06:01.612Z,8.10
2023-04-17T22:08:27.894Z,11.50
2023-04-17T22:10:54.116Z,14.60
2023-04-17T22:13:20.661Z,10.00
2023-04-17T22:15:47.795Z,11.10
2023-04-17T22:18:14.535Z,9.40
2023-04-17T22:20:40.941Z,11.90
2023-04-17T22:23:07.373Z,10.10
2023-04-17T22:25:33.775Z,8.10
2023-04-17T22:28:00.358Z,7.70
2023-04-17T22:30:26.611Z,10.80
2023-04-17T22:32:52.879Z,9.20
2023-04-17T22:35:19.233Z,11.50
2023-04-17T22:37:45.551Z,8.80
2023-04-17T22:40:12.845Z,8.50
2023-04-17T22:42:39.511Z,10.00
2023-04-17T22:45:06.617Z,9.70
2023-04-17T22:47:32.919Z,9.70
2023-04-17T22:49:59.226Z,9.50
2023-04-17T22:52:25.486Z,10.20
2023-04-17T22:54:52.774Z,9.20
2023-04-17T22:57:19.323Z,10.50
2023-04-17T22:59:45.647Z,7.40
2023-04-17T23:02:12.024Z,9.00
2023-04-17T23:04:38.659Z,9.90
2023-04-17T23:07:05.043Z,10.40
2023-04-17T23:09:31.338Z,14.20
2023-04-17T23:11:57.677Z,7.90
2023-04-17T23:14:25.629Z,13.60
2023-04-17T23:16:52.204Z,11.40
2023-04-17T23:19:20.415Z,13.00
2023-04-17T23:21:46.702Z,10.60
2023-04-17T23:24:13.066Z,12.60
2023-04-17T23:26:39.630Z,12.20
2023-04-17T23:29:05.925Z,11.40
2023-04-17T23:31:32.272Z,14.20
2023-04-17T23:33:58.625Z,11.20
2023-04-17T23:36:24.980Z,13.00
2023-04-17T23:38:51.423Z,13.80
2023-04-17T23:41:17.669Z,13.80
2023-04-17T23:43:44.266Z,16.10
2023-04-17T23:46:10.648Z,13.30
2023-04-17T23:48:36.993Z,11.80
2023-04-17T23:51:03.644Z,11.70
2023-04-17T23:53:30.003Z,10.20
2023-04-17T23:55:56.432Z,10.90
2023-04-17T23:58:22.653Z,15.50
